Time;durP1;ratioP1;P1;durP2;ratioP2;P2;SDS_P1;SDS_P2;PMS_P1;PMS_P2;Temp;Humidity;BMP_temperature;BMP_pressure;BME280_temperature;BME280_humidity;BME280_pressure;Samples;Min_cycle;Max_cycle;Signal;HPM_P1;HPM_P2
2022/10/31 00:00:03;;;;;;;67.35;25.15;;;10.70;99.90;;;;;;5057510;28;20056;-27
2022/10/31 00:02:28;;;;;;;73.05;29.33;;;10.60;99.90;;;;;;5075073;28;20049;-27
2022/10/31 00:04:54;;;;;;;68.03;25.95;;;10.50;99.90;;;;;;5074507;28;20106;-28
2022/10/31 00:07:20;;;;;;;57.33;23.65;;;10.50;99.90;;;;;;5074997;28;20482;-27
2022/10/31 00:09:46;;;;;;;65.45;27.15;;;10.30;99.90;;;;;;5075188;28;20048;-28
2022/10/31 00:12:11;;;;;;;59.58;27.75;;;10.40;99.90;;;;;;5074737;28;20045;-28
2022/10/31 00:14:37;;;;;;;59.80;26.63;;;10.40;99.90;;;;;;5075365;28;20129;-27
2022/10/31 00:17:02;;;;;;;62.05;27.23;;;10.30;99.90;;;;;;5075057;28;20359;-27
2022/10/31 00:19:28;;;;;;;66.75;28.88;;;10.30;99.90;;;;;;5075552;28;20045;-28
2022/10/31 00:21:54;;;;;;;74.78;30.15;;;10.30;99.90;;;;;;5075221;28;20374;-28
2022/10/31 00:24:20;;;;;;;71.65;31.63;;;10.30;99.90;;;;;;5074577;28;20110;-28
2022/10/31 00:26:45;;;;;;;88.20;32.38;;;10.40;99.90;;;;;;5075149;28;20394;-28
2022/10/31 00:29:12;;;;;;;78.68;31.15;;;10.30;99.90;;;;;;5074519;28;20047;-28
2022/10/31 00:31:38;;;;;;;85.72;30.65;;;10.30;99.90;;;;;;5074472;28;20509;-29
2022/10/31 00:34:04;;;;;;;75.55;28.70;;;10.20;99.90;;;;;;5073265;28;20040;-27
2022/10/31 00:36:30;;;;;;;99.95;36.25;;;10.20;99.90;;;;;;5074420;28;20445;-28
2022/10/31 00:38:57;;;;;;;82.28;31.63;;;10.20;99.90;;;;;;5074358;28;20052;-27
2022/10/31 00:41:23;;;;;;;104.28;35.05;;;10.10;99.90;;;;;;5057526;28;20045;-28
2022/10/31 00:43:49;;;;;;;92.90;33.15;;;10.20;99.90;;;;;;5074183;28;20106;-27
2022/10/31 00:46:14;;;;;;;95.03;34.38;;;10.00;99.90;;;;;;5074045;28;20060;-27
2022/10/31 00:48:41;;;;;;;94.68;35.55;;;10.00;99.90;;;;;;5073613;28;20435;-27
2022/10/31 00:51:08;;;;;;;93.35;35.13;;;10.00;99.90;;;;;;5072997;28;20138;-27
2022/10/31 00:53:33;;;;;;;97.68;37.60;;;10.00;99.90;;;;;;5073425;28;20095;-28
2022/10/31 00:55:59;;;;;;;110.25;37.97;;;10.00;99.90;;;;;;5072959;28;20083;-27
2022/10/31 00:58:25;;;;;;;122.75;41.90;;;10.00;99.90;;;;;;5074593;28;20516;-27
2022/10/31 01:00:54;;;;;;;127.60;42.05;;;10.00;99.90;;;;;;5072826;28;20068;-27
2022/10/31 01:03:22;;;;;;;118.72;40.40;;;10.00;99.90;;;;;;5073742;28;20052;-27
2022/10/31 01:06:10;;;;;;;115.03;42.78;;;10.00;99.90;;;;;;5073299;28;20411;-27
2022/10/31 01:08:37;;;;;;;128.88;44.20;;;10.10;99.90;;;;;;5074782;28;20056;-27
2022/10/31 01:11:03;;;;;;;153.52;48.45;;;10.10;99.90;;;;;;5073883;28;20044;-28
2022/10/31 01:13:29;;;;;;;131.00;45.63;;;10.10;99.90;;;;;;5074124;28;20055;-27
2022/10/31 01:15:56;;;;;;;138.95;45.30;;;10.10;99.90;;;;;;5073658;28;20526;-27
2022/10/31 01:18:22;;;;;;;130.65;46.22;;;9.90;99.90;;;;;;5072860;28;20055;-27
2022/10/31 01:20:57;;;;;;;168.68;49.13;;;9.90;99.90;;;;;;5072489;28;20048;-27
2022/10/31 01:23:23;;;;;;;158.02;50.33;;;9.90;99.90;;;;;;5073726;28;20090;-28
2022/10/31 01:25:48;;;;;;;133.88;47.72;;;9.90;99.90;;;;;;5073644;28;20090;-27
2022/10/31 01:28:15;;;;;;;133.57;47.92;;;10.00;99.90;;;;;;5073663;28;20048;-28
2022/10/31 01:30:41;;;;;;;136.15;50.25;;;10.00;99.90;;;;;;5072491;28;20052;-27
2022/10/31 01:33:07;;;;;;;165.55;56.65;;;10.00;99.90;;;;;;5073343;28;20051;-28
2022/10/31 01:35:32;;;;;;;149.15;52.60;;;10.10;99.90;;;;;;5073551;28;20045;-28
2022/10/31 01:37:58;;;;;;;150.95;54.80;;;10.10;99.90;;;;;;5073593;28;20075;-28
2022/10/31 01:40:24;;;;;;;142.60;52.22;;;10.20;99.90;;;;;;5073559;28;20041;-27
2022/10/31 01:42:49;;;;;;;133.15;50.70;;;10.10;99.90;;;;;;5074278;28;20040;-27
2022/10/31 01:45:16;;;;;;;128.80;50.50;;;10.00;99.90;;;;;;5073460;28;20083;-27
2022/10/31 01:47:49;;;;;;;127.38;46.38;;;10.00;99.90;;;;;;5055124;28;20437;-27
2022/10/31 01:50:32;;;;;;;115.43;44.85;;;10.00;99.90;;;;;;5073819;28;20131;-27
2022/10/31 01:53:00;;;;;;;109.15;45.13;;;10.10;99.90;;;;;;5073784;28;20048;-28
2022/10/31 01:55:33;;;;;;;104.88;42.63;;;10.10;99.90;;;;;;5072718;28;20057;-27
2022/10/31 01:58:06;;;;;;;;;;;10.10;99.90;;;;;;5073564;28;20052;-27
2022/10/31 02:00:32;;;;;;;103.45;42.90;;;10.20;99.90;;;;;;5073394;28;19920;-27
2022/10/31 02:02:59;;;;;;;109.78;45.03;;;10.00;99.90;;;;;;5073290;28;20041;-28
2022/10/31 02:05:27;;;;;;;104.38;43.85;;;10.00;99.90;;;;;;5072263;28;20493;-27
2022/10/31 02:08:19;;;;;;;108.95;44.50;;;10.10;99.90;;;;;;5073286;28;20044;-27
2022/10/31 02:10:44;;;;;;;122.30;46.08;;;9.90;99.90;;;;;;5073625;28;20067;-27
2022/10/31 02:13:12;;;;;;;97.60;40.90;;;10.00;99.90;;;;;;5073251;28;20494;-27
2022/10/31 02:15:39;;;;;;;102.63;42.75;;;9.90;99.90;;;;;;5073260;28;20052;-27
2022/10/31 02:18:07;;;;;;;105.65;43.55;;;9.90;99.90;;;;;;5056183;28;20053;-29
2022/10/31 02:21:02;;;;;;;99.43;42.95;;;10.00;99.90;;;;;;5077289;28;20048;-27
2022/10/31 02:23:33;;;;;;;95.45;40.47;;;9.90;99.90;;;;;;5077150;28;20055;-27
2022/10/31 02:26:24;;;;;;;101.25;41.63;;;9.90;99.90;;;;;;5076975;28;20051;-27
2022/10/31 02:29:21;;;;;;;107.47;42.88;;;9.90;99.90;;;;;;5077454;28;20040;-27
2022/10/31 02:32:04;;;;;;;116.20;45.05;;;9.90;99.90;;;;;;5076805;28;20045;-27
2022/10/31 02:34:36;;;;;;;98.32;41.70;;;9.80;99.90;;;;;;5077111;28;20048;-27
2022/10/31 02:37:11;;;;;;;92.85;38.80;;;9.80;99.90;;;;;;5076700;28;20072;-27
2022/10/31 02:39:43;;;;;;;121.05;45.60;;;9.80;99.90;;;;;;5077227;28;20086;-27
2022/10/31 02:42:34;;;;;;;102.53;42.45;;;9.80;99.90;;;;;;5076640;28;20055;-27
2022/10/31 02:45:17;;;;;;;107.18;44.47;;;9.70;99.90;;;;;;5076567;28;20044;-27
2022/10/31 02:47:45;;;;;;;112.90;43.35;;;9.70;99.90;;;;;;5059222;28;20060;-27
2022/10/31 02:50:19;;;;;;;112.82;45.00;;;9.70;99.90;;;;;;5076784;28;20433;-27
2022/10/31 02:52:50;;;;;;;117.55;45.15;;;9.60;99.90;;;;;;5077033;28;20060;-27
2022/10/31 02:55:33;;;;;;;114.80;44.72;;;9.60;99.90;;;;;;5076995;28;20059;-27
2022/10/31 02:58:10;;;;;;;123.15;46.20;;;9.50;99.90;;;;;;5076968;28;20088;-27
2022/10/31 03:00:58;;;;;;;119.55;45.08;;;9.60;99.90;;;;;;5076338;28;20056;-27
2022/10/31 03:03:53;;;;;;;110.03;42.03;;;9.50;99.90;;;;;;5076212;28;20037;-27
2022/10/31 03:06:46;;;;;;;107.85;44.05;;;9.50;99.90;;;;;;5076973;28;20045;-27
2022/10/31 03:09:26;;;;;;;105.15;43.88;;;9.40;99.90;;;;;;5076194;28;20052;-27
2022/10/31 03:12:05;;;;;;;107.07;42.40;;;9.40;99.90;;;;;;5075298;28;20049;-27
2022/10/31 03:14:37;;;;;;;110.97;44.78;;;9.40;99.90;;;;;;5075130;28;20052;-27
2022/10/31 03:17:06;;;;;;;125.85;47.05;;;9.50;99.90;;;;;;5076102;28;20075;-27
2022/10/31 03:19:46;;;;;;;125.35;48.38;;;9.40;99.90;;;;;;5075653;28;20521;-27
2022/10/31 03:22:14;;;;;;;144.68;50.40;;;9.50;99.90;;;;;;5076516;28;20129;-27
2022/10/31 03:24:41;;;;;;;126.15;46.10;;;9.40;99.90;;;;;;5076323;28;20101;-28
2022/10/31 03:27:15;;;;;;;119.50;46.67;;;9.50;99.90;;;;;;5075808;28;20094;-27
2022/10/31 03:29:45;;;;;;;114.72;45.28;;;9.30;99.90;;;;;;5075401;28;20490;-27
2022/10/31 03:32:20;;;;;;;108.32;43.90;;;9.30;99.90;;;;;;5075755;28;20044;-27
2022/10/31 03:34:49;;;;;;;122.72;45.53;;;9.40;99.90;;;;;;5076279;28;20440;-27
2022/10/31 03:37:18;;;;;;;125.40;48.45;;;9.30;99.90;;;;;;5076172;28;20191;-27
2022/10/31 03:39:48;;;;;;;115.10;45.10;;;9.30;99.90;;;;;;5075561;28;20076;-29
2022/10/31 03:42:18;;;;;;;115.88;42.92;;;9.30;99.90;;;;;;5076157;28;20044;-28
2022/10/31 03:44:48;;;;;;;120.22;44.83;;;9.20;99.90;;;;;;5075379;28;20043;-27
2022/10/31 03:47:14;;;;;;;121.82;46.00;;;9.10;99.90;;;;;;5075818;28;20056;-27
2022/10/31 03:49:40;;;;;;;127.78;45.03;;;9.10;99.90;;;;;;5074749;28;20131;-27
2022/10/31 03:52:28;;;;;;;140.65;45.22;;;9.10;99.90;;;;;;5075334;28;20186;-27
2022/10/31 03:55:05;;;;;;;125.68;43.45;;;9.00;99.90;;;;;;5075526;28;20048;-28
2022/10/31 03:57:55;;;;;;;114.75;43.33;;;8.90;99.90;;;;;;5075262;28;20135;-27
2022/10/31 04:00:20;;;;;;;109.13;41.03;;;8.90;99.90;;;;;;5075058;28;20100;-28
2022/10/31 04:02:55;;;;;;;116.30;43.42;;;8.80;99.90;;;;;;5075384;28;20082;-26
2022/10/31 04:05:22;;;;;;;131.68;45.63;;;8.80;99.90;;;;;;5075057;28;20572;-26
2022/10/31 04:07:53;;;;;;;119.32;47.10;;;8.90;99.90;;;;;;5074983;28;20044;-27
2022/10/31 04:10:19;;;;;;;112.32;42.50;;;8.80;99.90;;;;;;5075545;28;20429;-27
2022/10/31 04:12:51;;;;;;;115.55;44.80;;;8.80;99.90;;;;;;5074949;28;20084;-27
2022/10/31 04:15:19;;;;;;;120.55;43.60;;;8.80;99.90;;;;;;5075185;28;20041;-27
2022/10/31 04:17:49;;;;;;;116.43;43.60;;;8.80;99.90;;;;;;5073824;28;20505;-27
2022/10/31 04:20:16;;;;;;;131.27;46.00;;;8.80;99.90;;;;;;5073616;28;20041;-27
2022/10/31 04:22:42;;;;;;;131.93;46.03;;;8.80;99.90;;;;;;5057351;28;20044;-27
2022/10/31 04:25:08;;;;;;;134.95;46.67;;;8.70;99.90;;;;;;5074808;28;20047;-27
2022/10/31 04:27:34;;;;;;;116.78;44.08;;;8.80;99.90;;;;;;5074585;28;20098;-26
2022/10/31 04:30:00;;;;;;;121.32;45.17;;;8.70;99.90;;;;;;5073590;28;20048;-27
2022/10/31 04:32:26;;;;;;;131.30;47.55;;;8.70;99.90;;;;;;5074516;28;20044;-27
2022/10/31 04:34:51;;;;;;;124.47;44.55;;;8.70;99.90;;;;;;5074116;28;20041;-26
2022/10/31 04:37:17;;;;;;;108.35;43.33;;;8.80;99.90;;;;;;5073501;28;20398;-26
2022/10/31 04:39:43;;;;;;;132.32;45.45;;;8.80;99.90;;;;;;5074348;28;20052;-27
2022/10/31 04:42:08;;;;;;;125.60;45.22;;;8.80;99.90;;;;;;5072692;28;20101;-27
2022/10/31 04:44:34;;;;;;;124.40;45.90;;;8.80;99.90;;;;;;5074236;28;20064;-27
2022/10/31 04:46:59;;;;;;;137.02;47.10;;;8.80;99.90;;;;;;5072868;28;20056;-26
2022/10/31 04:49:25;;;;;;;97.32;41.03;;;8.70;99.90;;;;;;5074209;28;20055;-27
2022/10/31 04:51:51;;;;;;;102.05;41.17;;;8.80;99.90;;;;;;5074158;28;20052;-27
2022/10/31 04:54:16;;;;;;;122.13;44.30;;;8.80;99.90;;;;;;5074974;28;20033;-26
2022/10/31 04:56:42;;;;;;;131.65;46.83;;;8.70;99.90;;;;;;5074367;28;20082;-26
2022/10/31 04:59:08;;;;;;;127.70;47.75;;;8.70;99.90;;;;;;5074107;28;20410;-27
2022/10/31 05:01:33;;;;;;;135.25;47.53;;;8.70;99.90;;;;;;5074029;28;20486;-27
2022/10/31 05:03:59;;;;;;;126.80;46.42;;;8.70;99.90;;;;;;5073914;28;20137;-26
2022/10/31 05:06:25;;;;;;;149.40;47.17;;;8.70;99.90;;;;;;5074716;28;20053;-26
2022/10/31 05:08:50;;;;;;;143.52;48.22;;;8.60;99.90;;;;;;5073934;28;20478;-26
2022/10/31 05:11:16;;;;;;;141.68;47.03;;;8.50;99.90;;;;;;5073861;28;20084;-26
2022/10/31 05:13:42;;;;;;;134.20;46.20;;;8.50;99.90;;;;;;5073877;28;20036;-27
2022/10/31 05:16:07;;;;;;;168.98;52.22;;;8.40;99.90;;;;;;5074097;28;20048;-27
2022/10/31 05:18:33;;;;;;;164.15;51.08;;;8.40;99.90;;;;;;5073794;28;20557;-27
2022/10/31 05:20:59;;;;;;;117.22;42.67;;;8.40;99.90;;;;;;5072598;28;20059;-26
2022/10/31 05:23:24;;;;;;;130.10;44.85;;;8.50;99.90;;;;;;5072704;28;20486;-26
2022/10/31 05:25:50;;;;;;;129.25;45.65;;;8.60;99.90;;;;;;5073681;28;20132;-27
2022/10/31 05:28:16;;;;;;;137.43;48.80;;;8.50;99.90;;;;;;5072706;28;20037;-27
2022/10/31 05:30:41;;;;;;;134.35;47.95;;;8.50;99.90;;;;;;5072441;28;20097;-27
2022/10/31 05:33:07;;;;;;;135.32;46.10;;;8.50;99.90;;;;;;5072636;28;20097;-27
2022/10/31 05:35:33;;;;;;;154.40;49.70;;;8.60;99.90;;;;;;5073649;28;20127;-27
2022/10/31 05:37:59;;;;;;;163.95;50.65;;;8.60;99.90;;;;;;5073637;28;20398;-27
2022/10/31 05:40:26;;;;;;;134.98;48.30;;;8.60;99.90;;;;;;5056224;28;20087;-26
2022/10/31 05:42:53;;;;;;;132.60;46.65;;;8.50;99.90;;;;;;5073550;28;20083;-26
2022/10/31 05:45:20;;;;;;;142.02;49.10;;;8.40;99.90;;;;;;5074335;28;20101;-27
2022/10/31 05:47:54;;;;;;;148.65;46.05;;;8.40;99.90;;;;;;5073633;28;20135;-27
2022/10/31 05:50:21;;;;;;;179.85;51.75;;;8.40;99.90;;;;;;5072879;28;20052;-26
2022/10/31 05:52:47;;;;;;;157.32;53.13;;;8.40;99.90;;;;;;5075402;28;20090;-27
2022/10/31 05:55:12;;;;;;;145.32;48.50;;;8.40;99.90;;;;;;5077582;28;20474;-27
2022/10/31 05:57:38;;;;;;;204.25;54.28;;;8.50;99.90;;;;;;5077534;28;20044;-26
2022/10/31 06:00:05;;;;;;;195.98;56.70;;;8.40;99.90;;;;;;5076260;28;20051;-27
2022/10/31 06:02:34;;;;;;;152.18;50.17;;;8.40;99.90;;;;;;5077673;28;20201;-26
2022/10/31 06:05:00;;;;;;;178.27;53.00;;;8.30;99.90;;;;;;5077698;28;20095;-26
2022/10/31 06:07:26;;;;;;;179.95;55.03;;;8.30;99.90;;;;;;5076355;28;20048;-27
2022/10/31 06:09:52;;;;;;;193.55;60.63;;;8.20;99.90;;;;;;5077553;28;20046;-26
2022/10/31 06:12:18;;;;;;;172.18;54.63;;;8.20;99.90;;;;;;5059596;28;20409;-26
2022/10/31 06:14:43;;;;;;;168.23;56.10;;;8.30;99.90;;;;;;5078241;28;20044;-26
2022/10/31 06:17:09;;;;;;;176.43;56.63;;;8.20;99.90;;;;;;5077667;28;20044;-28
2022/10/31 06:19:35;;;;;;;194.45;61.92;;;8.20;99.90;;;;;;5076082;28;20094;-26
2022/10/31 06:22:00;;;;;;;186.52;57.72;;;8.30;99.90;;;;;;5077014;28;20060;-26
2022/10/31 06:24:26;;;;;;;163.27;55.28;;;8.20;99.90;;;;;;5076887;28;20043;-26
2022/10/31 06:26:52;;;;;;;203.95;63.17;;;8.20;99.90;;;;;;5076882;28;20073;-26
2022/10/31 06:29:17;;;;;;;199.55;63.33;;;8.10;99.90;;;;;;5076888;28;20068;-28
2022/10/31 06:31:43;;;;;;;194.50;61.53;;;8.20;99.90;;;;;;5076682;28;20129;-26
2022/10/31 06:34:09;;;;;;;206.32;62.30;;;8.30;99.90;;;;;;5076789;28;20052;-26
2022/10/31 06:36:35;;;;;;;187.80;60.47;;;8.30;99.90;;;;;;5076762;28;20086;-26
2022/10/31 06:39:00;;;;;;;196.68;63.13;;;8.30;99.90;;;;;;5075691;28;20050;-27
2022/10/31 06:41:26;;;;;;;177.52;60.60;;;8.40;99.90;;;;;;5076671;28;20084;-26
2022/10/31 06:43:52;;;;;;;169.85;59.85;;;8.40;99.90;;;;;;5076488;28;20055;-26
2022/10/31 06:46:17;;;;;;;160.55;59.15;;;8.30;99.90;;;;;;5075348;28;20048;-26
2022/10/31 06:48:43;;;;;;;196.73;65.25;;;8.40;99.90;;;;;;5075419;28;20132;-26
2022/10/31 06:51:09;;;;;;;154.82;57.17;;;8.40;99.90;;;;;;5076466;28;20052;-27
2022/10/31 06:53:35;;;;;;;157.85;66.30;;;8.40;99.90;;;;;;5076471;28;20044;-26
2022/10/31 06:56:01;;;;;;;203.27;108.65;;;8.50;99.90;;;;;;5076379;28;20040;-26
2022/10/31 06:58:26;;;;;;;172.15;60.67;;;8.50;99.90;;;;;;5076367;28;20049;-26
2022/10/31 07:00:52;;;;;;;176.90;61.80;;;8.60;99.90;;;;;;5076615;28;20044;-27
2022/10/31 07:03:18;;;;;;;162.40;54.33;;;8.50;99.90;;;;;;5074979;28;20127;-27
2022/10/31 07:05:44;;;;;;;160.90;55.20;;;8.60;99.90;;;;;;5074280;28;20056;-28
2022/10/31 07:08:12;;;;;;;184.65;59.95;;;8.60;99.90;;;;;;5082047;28;20482;-27
2022/10/31 07:10:39;;;;;;;231.35;69.10;;;8.50;99.90;;;;;;5088522;28;20112;-27
2022/10/31 07:13:09;;;;;;;189.15;61.63;;;8.60;99.90;;;;;;5096354;28;20048;-27
2022/10/31 07:15:36;;;;;;;142.43;50.95;;;8.50;99.90;;;;;;5079010;28;20048;-27
2022/10/31 07:18:04;;;;;;;155.57;57.25;;;8.60;99.90;;;;;;5094350;28;20490;-27
2022/10/31 07:20:30;;;;;;;169.48;60.90;;;8.50;99.90;;;;;;5085388;28;20048;-26
2022/10/31 07:22:56;;;;;;;163.20;57.00;;;8.70;99.90;;;;;;5074267;28;20036;-27
2022/10/31 07:25:23;;;;;;;172.88;56.05;;;8.70;99.90;;;;;;5058037;28;20048;-27
2022/10/31 07:27:49;;;;;;;171.25;60.53;;;8.70;99.90;;;;;;5074710;28;20051;-26
2022/10/31 07:30:17;;;;;;;187.20;69.78;;;8.70;99.90;;;;;;5075804;28;20036;-27
2022/10/31 07:32:48;;;;;;;165.48;61.78;;;8.80;99.90;;;;;;5075866;28;20086;-27
2022/10/31 07:35:19;;;;;;;165.63;56.33;;;8.80;99.90;;;;;;5075936;28;20048;-27
2022/10/31 07:37:45;;;;;;;158.95;56.22;;;8.90;99.90;;;;;;5076155;28;20492;-27
2022/10/31 07:40:11;;;;;;;143.63;53.00;;;9.00;99.90;;;;;;5075422;28;20037;-27
2022/10/31 07:42:42;;;;;;;153.93;59.88;;;9.00;99.90;;;;;;5075549;28;20055;-27
2022/10/31 07:45:14;;;;;;;140.82;53.47;;;9.10;99.90;;;;;;5057719;28;20529;-26
2022/10/31 07:47:45;;;;;;;150.82;55.47;;;9.20;99.90;;;;;;5074260;28;20402;-26
2022/10/31 07:50:17;;;;;;;159.40;56.55;;;9.20;99.90;;;;;;5075981;28;20056;-28
2022/10/31 07:52:42;;;;;;;126.47;50.42;;;9.20;99.90;;;;;;5076220;28;20044;-27
2022/10/31 07:55:08;;;;;;;130.30;52.33;;;9.20;99.90;;;;;;5075354;28;20063;-27
2022/10/31 07:57:34;;;;;;;134.48;51.30;;;9.30;99.90;;;;;;5075333;28;20075;-27
2022/10/31 08:00:00;;;;;;;123.43;49.33;;;9.40;99.90;;;;;;5075196;28;20052;-28
2022/10/31 08:02:26;;;;;;;118.40;47.85;;;9.40;99.90;;;;;;5075179;28;20055;-27
2022/10/31 08:04:51;;;;;;;113.95;47.35;;;9.40;99.90;;;;;;5073801;28;20131;-28
2022/10/31 08:07:17;;;;;;;101.35;45.65;;;9.50;99.90;;;;;;5075066;28;20045;-28
2022/10/31 08:09:43;;;;;;;104.68;46.03;;;9.60;99.90;;;;;;5075585;28;20044;-27
2022/10/31 08:12:09;;;;;;;104.20;46.33;;;9.70;99.90;;;;;;5075510;28;20040;-27
2022/10/31 08:14:35;;;;;;;99.90;46.13;;;9.60;99.90;;;;;;5075503;28;20048;-27
2022/10/31 08:17:00;;;;;;;95.80;44.85;;;9.70;99.90;;;;;;5072627;28;20087;-27
2022/10/31 08:19:26;;;;;;;108.13;48.47;;;9.80;99.90;;;;;;5074825;28;20087;-27
2022/10/31 08:21:54;;;;;;;110.75;50.63;;;9.90;99.90;;;;;;5073640;28;20041;-28
2022/10/31 08:24:23;;;;;;;102.47;49.30;;;9.90;99.90;;;;;;5073557;28;20097;-27
2022/10/31 08:26:48;;;;;;;90.35;45.35;;;10.00;99.90;;;;;;5074703;28;20094;-28
2022/10/31 08:29:14;;;;;;;112.53;51.78;;;10.10;99.90;;;;;;5074648;28;20088;-28
2022/10/31 08:31:41;;;;;;;93.07;48.78;;;10.10;99.90;;;;;;5074560;28;20076;-28
2022/10/31 08:34:07;;;;;;;96.22;48.22;;;10.10;99.90;;;;;;5074202;28;20536;-27
2022/10/31 08:36:33;;;;;;;91.63;47.03;;;10.10;99.90;;;;;;5074520;28;20076;-28
2022/10/31 08:38:58;;;;;;;110.88;52.13;;;10.20;99.90;;;;;;5075250;28;20040;-28
2022/10/31 08:41:24;;;;;;;108.30;49.92;;;10.20;99.90;;;;;;5056816;28;20385;-28
2022/10/31 08:43:50;;;;;;;96.50;49.63;;;10.20;99.90;;;;;;5073228;28;20495;-27
2022/10/31 08:46:16;;;;;;;93.82;47.47;;;10.30;99.90;;;;;;5074302;28;20052;-27
2022/10/31 08:48:42;;;;;;;86.65;46.47;;;10.30;99.90;;;;;;5073678;28;20044;-27
2022/10/31 08:51:09;;;;;;;101.20;48.13;;;10.50;99.90;;;;;;5073778;28;20055;-28
2022/10/31 08:53:34;;;;;;;80.28;44.10;;;10.40;99.90;;;;;;5056546;28;20048;-28
2022/10/31 08:56:00;;;;;;;100.53;47.90;;;10.60;99.90;;;;;;5072943;28;20044;-27
2022/10/31 08:58:26;;;;;;;89.45;45.60;;;10.70;99.90;;;;;;5074098;28;20052;-27
2022/10/31 09:00:54;;;;;;;97.55;47.33;;;10.70;99.90;;;;;;5072912;28;20496;-28
2022/10/31 09:03:22;;;;;;;94.57;46.97;;;10.80;99.90;;;;;;5056502;28;20055;-27
2022/10/31 09:05:49;;;;;;;75.18;43.03;;;10.80;99.90;;;;;;5073931;28;20084;-28
2022/10/31 09:08:15;;;;;;;85.65;45.67;;;10.80;99.90;;;;;;5073967;28;20049;-28
2022/10/31 09:10:41;;;;;;;80.20;41.72;;;10.90;99.90;;;;;;5073951;28;20041;-28
2022/10/31 09:13:16;;;;;;;69.90;40.42;;;10.90;99.90;;;;;;5073764;28;20127;-28
2022/10/31 09:15:44;;;;;;;74.85;41.42;;;11.10;99.90;;;;;;5073895;28;20051;-28
2022/10/31 09:18:11;;;;;;;70.25;39.88;;;11.10;99.90;;;;;;5073818;28;20087;-28
2022/10/31 09:20:39;;;;;;;66.20;38.00;;;11.20;99.90;;;;;;5073785;28;20466;-28
2022/10/31 09:23:10;;;;;;;58.90;35.08;;;11.50;99.90;;;;;;5084474;28;20089;-28
2022/10/31 09:25:36;;;;;;;60.63;35.53;;;11.50;99.90;;;;;;5091511;28;20052;-29
2022/10/31 09:28:03;;;;;;;51.95;31.10;;;11.60;99.90;;;;;;5080877;28;20070;-28
2022/10/31 09:30:31;;;;;;;53.42;30.35;;;11.70;99.90;;;;;;5076269;28;20076;-28
2022/10/31 09:33:02;;;;;;;48.67;29.77;;;11.80;99.90;;;;;;5075870;28;20046;-28
2022/10/31 09:35:31;;;;;;;45.30;26.33;;;12.00;99.90;;;;;;5078763;28;20055;-28
2022/10/31 09:38:06;;;;;;;43.17;24.25;;;12.10;99.90;;;;;;5073453;28;20047;-28
2022/10/31 09:40:46;;;;;;;33.75;22.00;;;12.20;99.90;;;;;;5074185;28;20084;-28
2022/10/31 09:43:33;;;;;;;37.97;20.90;;;12.30;99.90;;;;;;5056376;28;20405;-28
2022/10/31 09:46:25;;;;;;;28.35;19.33;;;12.40;99.90;;;;;;5073588;28;20098;-28
2022/10/31 09:49:22;;;;;;;30.83;17.77;;;12.50;99.90;;;;;;5073859;28;20056;-29
2022/10/31 09:52:00;;;;;;;26.02;16.92;;;12.60;99.90;;;;;;5090010;28;20574;-28
2022/10/31 09:54:34;;;;;;;20.23;15.13;;;12.80;99.90;;;;;;5093720;28;20083;-28
2022/10/31 09:57:00;;;;;;;21.75;14.43;;;12.90;99.90;;;;;;5093667;28;20047;-28
2022/10/31 09:59:40;;;;;;;21.33;13.05;;;13.00;99.90;;;;;;5093598;28;20055;-28
2022/10/31 10:02:25;;;;;;;17.27;12.25;;;13.20;99.90;;;;;;5087470;28;20095;-28
2022/10/31 10:05:04;;;;;;;18.88;11.98;;;13.30;99.90;;;;;;5079913;28;20056;-28
2022/10/31 10:07:32;;;;;;;15.80;10.70;;;13.40;99.90;;;;;;5078101;28;20048;-28
2022/10/31 10:10:19;;;;;;;16.95;11.30;;;13.40;99.90;;;;;;5073264;28;20055;-28
2022/10/31 10:12:51;;;;;;;15.13;10.20;;;13.60;99.90;;;;;;5085744;28;20457;-28
2022/10/31 10:15:35;;;;;;;12.70;9.43;;;13.70;99.90;;;;;;5076734;28;20046;-29
2022/10/31 10:18:07;;;;;;;17.42;10.05;;;13.80;99.90;;;;;;5073493;28;20302;-28
2022/10/31 10:20:55;;;;;;;12.75;9.70;;;14.00;99.90;;;;;;5073092;28;20075;-28
2022/10/31 10:23:39;;;;;;;14.27;11.10;;;14.20;99.90;;;;;;5073624;28;20041;-28
2022/10/31 10:26:32;;;;;;;17.58;11.38;;;14.50;99.90;;;;;;5075839;28;20051;-28
2022/10/31 10:29:06;;;;;;;15.93;10.93;;;14.70;99.90;;;;;;5075616;28;20456;-28
2022/10/31 10:31:39;;;;;;;13.35;9.18;;;14.80;99.90;;;;;;5077407;28;20727;-29
2022/10/31 10:34:18;;;;;;;11.98;8.40;;;14.90;99.90;;;;;;5073689;28;20120;-28
2022/10/31 10:36:57;;;;;;;12.55;9.07;;;14.90;99.90;;;;;;5072953;28;20414;-28
2022/10/31 10:39:55;;;;;;;18.55;10.65;;;15.00;99.90;;;;;;5080827;28;20072;-29
2022/10/31 10:48:34;;;;;;;13.55;9.00;;;15.20;99.90;;;;;;5079472;28;20139;-28
2022/10/31 10:51:01;;;;;;;10.30;8.60;;;15.30;99.90;;;;;;5095750;28;20044;-28
2022/10/31 10:54:00;;;;;;;11.98;8.93;;;15.40;99.90;;;;;;5085675;28;20047;-28
2022/10/31 10:56:53;;;;;;;14.40;8.30;;;15.50;99.90;;;;;;5075094;28;20053;-28
2022/10/31 10:59:20;;;;;;;11.73;8.65;;;15.60;99.90;;;;;;5073406;28;20053;-28
2022/10/31 11:01:49;;;;;;;11.57;8.02;;;15.60;99.90;;;;;;5074994;28;20048;-29
2022/10/31 11:04:29;;;;;;;13.38;9.25;;;15.60;99.90;;;;;;5076505;28;20387;-29
2022/10/31 11:07:08;;;;;;;12.18;8.55;;;15.60;99.90;;;;;;5076288;28;20450;-28
2022/10/31 11:09:35;;;;;;;12.52;8.73;;;15.60;99.90;;;;;;5077111;28;20041;-29
2022/10/31 11:12:10;;;;;;;13.82;8.70;;;15.60;99.90;;;;;;5076116;28;20482;-28
2022/10/31 11:14:55;;;;;;;12.13;7.97;;;15.80;99.90;;;;;;5074990;28;20055;-28
2022/10/31 11:17:38;;;;;;;12.27;8.30;;;15.70;99.90;;;;;;5075774;28;20087;-29
2022/10/31 11:20:16;;;;;;;10.93;7.57;;;15.60;99.90;;;;;;5076043;28;20041;-28
2022/10/31 11:22:44;;;;;;;10.25;7.38;;;15.50;99.90;;;;;;5075973;28;20074;-28
2022/10/31 11:25:19;;;;;;;11.02;8.68;;;15.50;99.90;;;;;;5074371;28;20376;-28
2022/10/31 11:28:05;;;;;;;13.18;8.52;;;15.50;99.90;;;;;;5075711;28;20463;-28
2022/10/31 11:30:41;;;;;;;13.35;6.80;;;15.40;99.90;;;;;;5075760;28;20394;-28
2022/10/31 11:33:22;;;;;;;11.98;6.93;;;15.30;99.90;;;;;;5075884;28;20040;-28
2022/10/31 11:35:49;;;;;;;9.05;7.10;;;15.10;99.90;;;;;;5075770;28;20044;-28
2022/10/31 11:38:21;;;;;;;15.15;8.65;;;15.00;99.90;;;;;;5074724;28;20048;-29
2022/10/31 11:41:03;;;;;;;13.33;8.50;;;14.90;99.90;;;;;;5074160;28;20052;-29
2022/10/31 11:43:29;;;;;;;16.05;9.02;;;14.80;99.90;;;;;;5075524;28;20295;-28
2022/10/31 11:45:56;;;;;;;14.13;9.50;;;14.70;99.90;;;;;;5075549;28;20051;-28
2022/10/31 11:48:27;;;;;;;14.38;10.77;;;14.60;99.90;;;;;;5075041;28;20086;-28
2022/10/31 11:50:58;;;;;;;13.93;9.30;;;14.60;99.90;;;;;;5075235;28;20056;-28
2022/10/31 11:53:33;;;;;;;12.75;8.65;;;14.60;99.90;;;;;;5075299;28;20088;-29
2022/10/31 11:56:14;;;;;;;15.48;9.30;;;14.70;99.90;;;;;;5075282;28;20478;-28
2022/10/31 11:58:41;;;;;;;19.40;9.90;;;14.80;99.90;;;;;;5075851;28;20122;-28
2022/10/31 12:01:27;;;;;;;15.32;10.45;;;14.90;99.90;;;;;;5075239;28;20044;-29
2022/10/31 12:04:35;;;;;;;14.48;9.88;;;14.90;99.90;;;;;;5075204;28;20071;-29
2022/10/31 12:07:01;;;;;;;15.70;10.60;;;15.00;99.90;;;;;;5072277;28;20059;-28
2022/10/31 12:09:36;;;;;;;16.80;9.98;;;15.20;99.90;;;;;;5057132;28;20041;-28
2022/10/31 12:12:23;;;;;;;16.30;10.52;;;15.40;99.90;;;;;;5075056;28;20091;-28
2022/10/31 12:15:10;;;;;;;12.90;9.35;;;15.70;99.90;;;;;;5073773;28;20075;-29
2022/10/31 12:18:02;;;;;;;17.25;9.85;;;15.80;99.90;;;;;;5074815;28;20130;-29
2022/10/31 12:20:48;;;;;;;12.77;8.40;;;15.80;99.90;;;;;;5075149;28;20044;-29
2022/10/31 12:24:04;;;;;;;11.02;7.90;;;15.90;99.90;;;;;;5074748;28;20053;-28
2022/10/31 12:26:49;;;;;;;10.43;7.03;;;15.90;99.90;;;;;;5064758;28;20049;-29
2022/10/31 12:29:32;;;;;;;10.10;6.70;;;16.00;99.90;;;;;;5074622;28;20474;-28
2022/10/31 12:31:57;;;;;;;;;;;16.00;99.90;;;;;;5074075;28;20045;-29
2022/10/31 12:35:12;;;;;;;7.18;5.70;;;16.00;99.90;;;;;;5074589;28;19927;-29
2022/10/31 12:37:52;;;;;;;9.77;5.75;;;16.10;99.90;;;;;;5062309;28;20059;-29
2022/10/31 12:40:42;;;;;;;8.70;5.78;;;16.10;99.90;;;;;;5075317;28;20040;-29
2022/10/31 12:43:29;;;;;;;8.60;5.65;;;16.20;99.90;;;;;;5074431;28;20091;-28
2022/10/31 12:45:57;;;;;;;7.03;4.60;;;16.30;99.90;;;;;;5073151;28;20057;-28
2022/10/31 12:48:53;;;;;;;9.85;6.25;;;16.30;99.90;;;;;;5073713;28;20052;-30
2022/10/31 12:51:22;;;;;;;9.48;5.50;;;16.40;99.90;;;;;;5073904;28;20135;-29
2022/10/31 12:53:56;;;;;;;9.38;4.72;;;16.30;99.90;;;;;;5074195;28;20040;-28